Terminal Aerodrome Forecast
Issued by NWS Tiyan, Guam

Home | Current Version | Previous Version | Text Only | Print | Product List | Glossary On
Versions: 1 2 3 4 5 6 7 8 9 10 11 12 13 14 15 16 17 18 19 20 21 22 23 24 25 26 27 28 29 30 31 32 33 34
000
FTPQ31 PGUM 171916 AAA
TAFGUM
TAF AMD
PGUM 171916Z 1719/1824 06015G24KT 6SM SHRA SCT012 BKN025 OVC050
      TEMPO 1719/1722 2SM SHRA SCT007 OVC012
     FM172300 05016G26KT P6SM VCSH SCT012 BKN025 BKN090
     FM180800 07015G22KT P6SM VCSH SCT015 BKN030 BKN120=

USA.gov is the U.S. government's official web portal to all federal, state and local government web resources and services.